KCID/CID METAR and TAF weather

Enter ICAO airport designator
Station Type Date Time Source
KCID METAR 2018/01/22 19:52 UTC NOAA

KCID 221952Z 24010KT 10SM BKN025 BKN032 08/04 A2939 RMK AO2 SLP956 T00830039


Station Type Date Time Source
KCID Decoded METAR 2018/01/22 19:52 UTC NOAA

CEDAR RAPIDS AIRPORT, IA, United States (KCID) 41-53N 91-43W
Jan 22, 2018 - 02:52 PM EST / 2018.01.22 1952 UTC
Wind: from the WSW (240 degrees) at 12 MPH (10 KT):0
Visibility: 10 mile(s):0
Sky conditions: mostly cloudy
Temperature: 46.9 F (8.3 C)
Dew Point: 39.0 F (3.9 C)
Relative Humidity: 73%
Pressure (altimeter): 29.39 in. Hg (995 hPa)
ob: KCID 221952Z 24010KT 10SM BKN025 BKN032 08/04 A2939 RMK AO2 SLP956 T00830039
cycle: 20

Station Type Date Time Source
KCID TAF 2018/01/22 20:34 UTC NOAA

TAF
AMD KCID 221931Z 2220/2318 23014G20KT P6SM SCT006 BKN035
FM230000 16006KT 4SM BR VCSH BKN015
FM230500 33016G25KT 2SM -SN BR OVC005
FM231200 32017G27KT P6SM OVC015


Example: see airport list